sensor_id;sensor_type;location;lat;lon;timestamp;temperature;humidity
2825;DHT22;1420;51.324;12.344;2023-03-26T00:01:13;8.30;99.90
2825;DHT22;1420;51.324;12.344;2023-03-26T00:03:39;8.20;99.90
2825;DHT22;1420;51.324;12.344;2023-03-26T00:06:08;8.30;99.90
2825;DHT22;1420;51.324;12.344;2023-03-26T00:08:34;8.30;99.90
2825;DHT22;1420;51.324;12.344;2023-03-26T00:11:03;8.20;99.90
2825;DHT22;1420;51.324;12.344;2023-03-26T00:13:30;8.10;99.90
2825;DHT22;1420;51.324;12.344;2023-03-26T00:15:57;8.20;99.90
2825;DHT22;1420;51.324;12.344;2023-03-26T00:18:24;8.10;99.90
2825;DHT22;1420;51.324;12.344;2023-03-26T00:20:52;8.10;99.90
2825;DHT22;1420;51.324;12.344;2023-03-26T00:23:20;8.10;99.90
2825;DHT22;1420;51.324;12.344;2023-03-26T00:25:50;8.20;99.90
2825;DHT22;1420;51.324;12.344;2023-03-26T00:28:17;8.20;99.90
2825;DHT22;1420;51.324;12.344;2023-03-26T00:30:44;8.20;99.90
2825;DHT22;1420;51.324;12.344;2023-03-26T00:33:12;8.20;99.90
2825;DHT22;1420;51.324;12.344;2023-03-26T00:35:39;8.20;99.90
2825;DHT22;1420;51.324;12.344;2023-03-26T00:38:07;8.10;99.90
2825;DHT22;1420;51.324;12.344;2023-03-26T00:40:35;8.20;99.90
2825;DHT22;1420;51.324;12.344;2023-03-26T00:43:03;8.20;99.90
2825;DHT22;1420;51.324;12.344;2023-03-26T00:45:30;8.20;99.90
2825;DHT22;1420;51.324;12.344;2023-03-26T00:47:57;8.10;99.90
2825;DHT22;1420;51.324;12.344;2023-03-26T00:50:24;8.10;99.90
2825;DHT22;1420;51.324;12.344;2023-03-26T00:52:52;8.10;99.90
2825;DHT22;1420;51.324;12.344;2023-03-26T00:55:19;8.10;99.90
2825;DHT22;1420;51.324;12.344;2023-03-26T00:57:47;8.10;99.90
2825;DHT22;1420;51.324;12.344;2023-03-26T01:00:15;8.00;99.90
2825;DHT22;1420;51.324;12.344;2023-03-26T01:02:43;7.90;99.90
2825;DHT22;1420;51.324;12.344;2023-03-26T01:07:49;7.80;99.90
2825;DHT22;1420;51.324;12.344;2023-03-26T01:10:17;7.80;99.90
2825;DHT22;1420;51.324;12.344;2023-03-26T01:12:45;8.00;99.90
2825;DHT22;1420;51.324;12.344;2023-03-26T01:15:13;8.10;99.90
2825;DHT22;1420;51.324;12.344;2023-03-26T01:17:40;8.00;99.90
2825;DHT22;1420;51.324;12.344;2023-03-26T01:20:12;7.90;99.90
2825;DHT22;1420;51.324;12.344;2023-03-26T01:22:37;7.90;99.90
2825;DHT22;1420;51.324;12.344;2023-03-26T01:25:04;8.00;99.90
2825;DHT22;1420;51.324;12.344;2023-03-26T01:27:49;7.90;99.90
2825;DHT22;1420;51.324;12.344;2023-03-26T01:30:20;8.00;99.90
2825;DHT22;1420;51.324;12.344;2023-03-26T01:33:01;8.00;99.90
2825;DHT22;1420;51.324;12.344;2023-03-26T01:38:09;8.00;99.90
2825;DHT22;1420;51.324;12.344;2023-03-26T01:40:34;7.90;99.90
2825;DHT22;1420;51.324;12.344;2023-03-26T01:43:20;8.00;99.90
2825;DHT22;1420;51.324;12.344;2023-03-26T01:45:44;8.00;99.90
2825;DHT22;1420;51.324;12.344;2023-03-26T01:48:11;8.00;99.90
2825;DHT22;1420;51.324;12.344;2023-03-26T01:50:39;8.10;99.90
2825;DHT22;1420;51.324;12.344;2023-03-26T01:53:06;8.00;99.90
2825;DHT22;1420;51.324;12.344;2023-03-26T01:55:41;7.90;99.90
2825;DHT22;1420;51.324;12.344;2023-03-26T01:58:11;7.90;99.90
2825;DHT22;1420;51.324;12.344;2023-03-26T02:00:41;7.80;99.90
2825;DHT22;1420;51.324;12.344;2023-03-26T02:03:26;8.00;99.90
2825;DHT22;1420;51.324;12.344;2023-03-26T02:06:04;8.00;99.90
2825;DHT22;1420;51.324;12.344;2023-03-26T02:08:31;8.00;99.90
2825;DHT22;1420;51.324;12.344;2023-03-26T02:10:56;8.00;99.90
2825;DHT22;1420;51.324;12.344;2023-03-26T02:13:24;7.90;99.90
2825;DHT22;1420;51.324;12.344;2023-03-26T02:15:58;7.80;99.90
2825;DHT22;1420;51.324;12.344;2023-03-26T02:18:24;7.80;99.90
2825;DHT22;1420;51.324;12.344;2023-03-26T02:20:51;8.00;99.90
2825;DHT22;1420;51.324;12.344;2023-03-26T02:23:19;7.80;99.90
2825;DHT22;1420;51.324;12.344;2023-03-26T02:25:46;7.70;99.90
2825;DHT22;1420;51.324;12.344;2023-03-26T02:28:13;7.80;99.90
2825;DHT22;1420;51.324;12.344;2023-03-26T02:30:40;7.70;99.90
2825;DHT22;1420;51.324;12.344;2023-03-26T02:33:08;7.80;99.90
2825;DHT22;1420;51.324;12.344;2023-03-26T02:35:36;7.80;99.90
2825;DHT22;1420;51.324;12.344;2023-03-26T02:38:04;7.70;99.90
2825;DHT22;1420;51.324;12.344;2023-03-26T02:40:32;7.70;99.90
2825;DHT22;1420;51.324;12.344;2023-03-26T02:43:00;7.70;99.90
2825;DHT22;1420;51.324;12.344;2023-03-26T02:45:28;7.50;99.90
2825;DHT22;1420;51.324;12.344;2023-03-26T02:47:55;7.40;99.90
2825;DHT22;1420;51.324;12.344;2023-03-26T02:50:22;7.40;99.90
2825;DHT22;1420;51.324;12.344;2023-03-26T02:52:49;7.50;99.90
2825;DHT22;1420;51.324;12.344;2023-03-26T02:55:16;7.40;99.90
2825;DHT22;1420;51.324;12.344;2023-03-26T02:57:44;7.50;99.90
2825;DHT22;1420;51.324;12.344;2023-03-26T03:00:11;7.60;99.90
2825;DHT22;1420;51.324;12.344;2023-03-26T03:02:38;7.60;99.90
2825;DHT22;1420;51.324;12.344;2023-03-26T03:05:06;7.40;99.90
2825;DHT22;1420;51.324;12.344;2023-03-26T03:07:33;7.50;99.90
2825;DHT22;1420;51.324;12.344;2023-03-26T03:10:00;7.40;99.90
2825;DHT22;1420;51.324;12.344;2023-03-26T03:12:27;7.50;99.90
2825;DHT22;1420;51.324;12.344;2023-03-26T03:14:55;7.70;99.90
2825;DHT22;1420;51.324;12.344;2023-03-26T03:17:22;7.50;99.90
2825;DHT22;1420;51.324;12.344;2023-03-26T03:19:49;7.70;99.90
2825;DHT22;1420;51.324;12.344;2023-03-26T03:22:18;7.70;99.90
2825;DHT22;1420;51.324;12.344;2023-03-26T03:24:45;7.70;99.90
2825;DHT22;1420;51.324;12.344;2023-03-26T03:27:13;7.60;99.90
2825;DHT22;1420;51.324;12.344;2023-03-26T03:29:41;7.60;99.90
2825;DHT22;1420;51.324;12.344;2023-03-26T03:32:09;7.50;99.90
2825;DHT22;1420;51.324;12.344;2023-03-26T03:34:37;7.60;99.90
2825;DHT22;1420;51.324;12.344;2023-03-26T03:37:05;7.70;99.90
2825;DHT22;1420;51.324;12.344;2023-03-26T03:39:33;7.60;99.90
2825;DHT22;1420;51.324;12.344;2023-03-26T03:42:01;7.40;99.90
2825;DHT22;1420;51.324;12.344;2023-03-26T03:44:29;7.40;99.90
2825;DHT22;1420;51.324;12.344;2023-03-26T03:46:57;7.40;99.90
2825;DHT22;1420;51.324;12.344;2023-03-26T03:49:25;7.50;99.90
2825;DHT22;1420;51.324;12.344;2023-03-26T03:51:53;7.50;99.90
2825;DHT22;1420;51.324;12.344;2023-03-26T03:54:21;7.40;99.90
2825;DHT22;1420;51.324;12.344;2023-03-26T03:56:48;7.40;99.90
2825;DHT22;1420;51.324;12.344;2023-03-26T03:59:15;7.40;99.90
2825;DHT22;1420;51.324;12.344;2023-03-26T04:01:43;7.40;99.90
2825;DHT22;1420;51.324;12.344;2023-03-26T04:04:10;7.40;99.90
2825;DHT22;1420;51.324;12.344;2023-03-26T04:06:37;7.40;99.90
2825;DHT22;1420;51.324;12.344;2023-03-26T04:09:04;7.40;99.90
2825;DHT22;1420;51.324;12.344;2023-03-26T04:11:31;7.40;99.90
2825;DHT22;1420;51.324;12.344;2023-03-26T04:13:59;7.40;99.90
2825;DHT22;1420;51.324;12.344;2023-03-26T04:16:26;7.60;99.90
2825;DHT22;1420;51.324;12.344;2023-03-26T04:18:54;7.50;99.90
2825;DHT22;1420;51.324;12.344;2023-03-26T04:21:22;7.60;99.90
2825;DHT22;1420;51.324;12.344;2023-03-26T04:23:50;7.70;99.90
2825;DHT22;1420;51.324;12.344;2023-03-26T04:26:17;7.60;99.90
2825;DHT22;1420;51.324;12.344;2023-03-26T04:28:47;7.70;99.90
2825;DHT22;1420;51.324;12.344;2023-03-26T04:31:16;7.60;99.90
2825;DHT22;1420;51.324;12.344;2023-03-26T04:33:42;7.60;99.90
2825;DHT22;1420;51.324;12.344;2023-03-26T04:36:09;7.70;99.90
2825;DHT22;1420;51.324;12.344;2023-03-26T04:38:40;7.80;99.90
2825;DHT22;1420;51.324;12.344;2023-03-26T04:41:08;7.70;99.90
2825;DHT22;1420;51.324;12.344;2023-03-26T04:43:34;7.60;99.90
2825;DHT22;1420;51.324;12.344;2023-03-26T04:46:02;7.60;99.90
2825;DHT22;1420;51.324;12.344;2023-03-26T04:48:29;7.50;99.90
2825;DHT22;1420;51.324;12.344;2023-03-26T04:50:56;7.50;99.90
2825;DHT22;1420;51.324;12.344;2023-03-26T04:53:23;7.60;99.90
2825;DHT22;1420;51.324;12.344;2023-03-26T04:56:12;7.60;99.90
2825;DHT22;1420;51.324;12.344;2023-03-26T04:58:35;7.60;99.90
2825;DHT22;1420;51.324;12.344;2023-03-26T05:01:02;7.60;99.90
2825;DHT22;1420;51.324;12.344;2023-03-26T05:03:30;7.70;99.90
2825;DHT22;1420;51.324;12.344;2023-03-26T05:05:57;7.70;99.90
2825;DHT22;1420;51.324;12.344;2023-03-26T05:08:24;7.70;99.90
2825;DHT22;1420;51.324;12.344;2023-03-26T05:10:51;7.70;99.90
2825;DHT22;1420;51.324;12.344;2023-03-26T05:13:19;7.90;99.90
2825;DHT22;1420;51.324;12.344;2023-03-26T05:15:46;8.00;99.90
2825;DHT22;1420;51.324;12.344;2023-03-26T05:18:13;7.90;99.90
2825;DHT22;1420;51.324;12.344;2023-03-26T05:20:40;7.90;99.90
2825;DHT22;1420;51.324;12.344;2023-03-26T05:23:08;8.00;99.90
2825;DHT22;1420;51.324;12.344;2023-03-26T05:25:35;8.10;99.90
2825;DHT22;1420;51.324;12.344;2023-03-26T05:28:03;8.00;99.90
2825;DHT22;1420;51.324;12.344;2023-03-26T05:30:31;8.00;99.90
2825;DHT22;1420;51.324;12.344;2023-03-26T05:32:58;8.10;99.90
2825;DHT22;1420;51.324;12.344;2023-03-26T05:35:25;8.00;99.90
2825;DHT22;1420;51.324;12.344;2023-03-26T05:37:52;8.00;99.90
2825;DHT22;1420;51.324;12.344;2023-03-26T05:40:19;8.10;99.90
2825;DHT22;1420;51.324;12.344;2023-03-26T05:42:47;8.00;99.90
2825;DHT22;1420;51.324;12.344;2023-03-26T05:45:15;8.00;99.90
2825;DHT22;1420;51.324;12.344;2023-03-26T05:47:43;8.00;99.90
2825;DHT22;1420;51.324;12.344;2023-03-26T05:50:10;8.10;99.90
2825;DHT22;1420;51.324;12.344;2023-03-26T05:52:37;8.00;99.90
2825;DHT22;1420;51.324;12.344;2023-03-26T05:55:04;8.10;99.90
2825;DHT22;1420;51.324;12.344;2023-03-26T05:57:32;8.10;99.90
2825;DHT22;1420;51.324;12.344;2023-03-26T05:59:59;8.10;99.90
2825;DHT22;1420;51.324;12.344;2023-03-26T06:02:26;8.10;99.90
2825;DHT22;1420;51.324;12.344;2023-03-26T06:04:53;8.20;99.90
2825;DHT22;1420;51.324;12.344;2023-03-26T06:07:21;8.30;99.90
2825;DHT22;1420;51.324;12.344;2023-03-26T06:09:49;8.30;99.90
2825;DHT22;1420;51.324;12.344;2023-03-26T06:12:17;8.40;99.90
2825;DHT22;1420;51.324;12.344;2023-03-26T06:14:45;8.40;99.90
2825;DHT22;1420;51.324;12.344;2023-03-26T06:17:12;8.40;99.90
2825;DHT22;1420;51.324;12.344;2023-03-26T06:19:44;8.50;99.90
2825;DHT22;1420;51.324;12.344;2023-03-26T06:22:11;8.50;99.90
2825;DHT22;1420;51.324;12.344;2023-03-26T06:24:38;8.50;99.90
2825;DHT22;1420;51.324;12.344;2023-03-26T06:27:06;8.60;99.90
2825;DHT22;1420;51.324;12.344;2023-03-26T06:29:33;8.60;99.90
2825;DHT22;1420;51.324;12.344;2023-03-26T06:32:00;8.60;99.90
2825;DHT22;1420;51.324;12.344;2023-03-26T06:34:27;8.60;99.90
2825;DHT22;1420;51.324;12.344;2023-03-26T06:36:55;8.70;99.90
2825;DHT22;1420;51.324;12.344;2023-03-26T06:39:22;8.70;99.90
2825;DHT22;1420;51.324;12.344;2023-03-26T06:41:49;8.70;99.90
2825;DHT22;1420;51.324;12.344;2023-03-26T06:44:16;8.70;99.90
2825;DHT22;1420;51.324;12.344;2023-03-26T06:46:44;8.80;99.90
2825;DHT22;1420;51.324;12.344;2023-03-26T06:49:11;8.90;99.90
2825;DHT22;1420;51.324;12.344;2023-03-26T06:51:38;8.80;99.90
2825;DHT22;1420;51.324;12.344;2023-03-26T06:54:06;8.90;99.90
2825;DHT22;1420;51.324;12.344;2023-03-26T06:56:34;8.90;99.90
2825;DHT22;1420;51.324;12.344;2023-03-26T06:59:02;8.90;99.90
2825;DHT22;1420;51.324;12.344;2023-03-26T07:01:29;8.80;99.90
2825;DHT22;1420;51.324;12.344;2023-03-26T07:03:57;9.30;99.90
2825;DHT22;1420;51.324;12.344;2023-03-26T07:06:25;9.30;99.90
2825;DHT22;1420;51.324;12.344;2023-03-26T07:08:53;9.20;99.90
2825;DHT22;1420;51.324;12.344;2023-03-26T07:11:20;9.40;99.90
2825;DHT22;1420;51.324;12.344;2023-03-26T07:13:47;9.30;99.90
2825;DHT22;1420;51.324;12.344;2023-03-26T07:16:15;9.40;99.90
2825;DHT22;1420;51.324;12.344;2023-03-26T07:18:42;9.40;99.90
2825;DHT22;1420;51.324;12.344;2023-03-26T07:21:10;9.30;99.90
2825;DHT22;1420;51.324;12.344;2023-03-26T07:23:38;9.30;99.90
2825;DHT22;1420;51.324;12.344;2023-03-26T07:26:45;9.30;99.90
2825;DHT22;1420;51.324;12.344;2023-03-26T07:28:55;9.60;99.90
2825;DHT22;1420;51.324;12.344;2023-03-26T07:31:23;9.70;99.90
2825;DHT22;1420;51.324;12.344;2023-03-26T07:33:57;9.60;99.90
2825;DHT22;1420;51.324;12.344;2023-03-26T07:36:27;9.80;99.90
2825;DHT22;1420;51.324;12.344;2023-03-26T07:39:29;10.00;99.90
2825;DHT22;1420;51.324;12.344;2023-03-26T07:41:42;10.20;99.90
2825;DHT22;1420;51.324;12.344;2023-03-26T07:46:45;10.10;99.90
2825;DHT22;1420;51.324;12.344;2023-03-26T07:49:13;10.10;99.90
2825;DHT22;1420;51.324;12.344;2023-03-26T07:51:40;10.40;99.90
2825;DHT22;1420;51.324;12.344;2023-03-26T07:54:08;10.50;99.90
2825;DHT22;1420;51.324;12.344;2023-03-26T07:56:36;10.50;99.90
2825;DHT22;1420;51.324;12.344;2023-03-26T07:59:11;10.70;99.90
2825;DHT22;1420;51.324;12.344;2023-03-26T08:01:43;10.80;99.90
2825;DHT22;1420;51.324;12.344;2023-03-26T08:04:17;10.60;99.90
2825;DHT22;1420;51.324;12.344;2023-03-26T08:06:38;10.60;99.90
2825;DHT22;1420;51.324;12.344;2023-03-26T08:09:10;10.90;99.90
2825;DHT22;1420;51.324;12.344;2023-03-26T08:11:55;10.90;99.90
2825;DHT22;1420;51.324;12.344;2023-03-26T08:14:40;10.80;99.90
2825;DHT22;1420;51.324;12.344;2023-03-26T08:17:10;10.90;99.90
2825;DHT22;1420;51.324;12.344;2023-03-26T08:19:54;11.00;99.90
2825;DHT22;1420;51.324;12.344;2023-03-26T08:22:22;10.90;99.90
2825;DHT22;1420;51.324;12.344;2023-03-26T08:25:15;10.80;99.90
2825;DHT22;1420;51.324;12.344;2023-03-26T08:27:40;10.80;99.90
2825;DHT22;1420;51.324;12.344;2023-03-26T08:30:15;11.10;99.90
2825;DHT22;1420;51.324;12.344;2023-03-26T08:32:41;11.30;99.90
2825;DHT22;1420;51.324;12.344;2023-03-26T08:35:10;11.30;99.90
2825;DHT22;1420;51.324;12.344;2023-03-26T08:37:35;11.40;99.90
2825;DHT22;1420;51.324;12.344;2023-03-26T08:40:04;11.50;99.90
2825;DHT22;1420;51.324;12.344;2023-03-26T08:42:50;11.40;99.90
2825;DHT22;1420;51.324;12.344;2023-03-26T08:45:32;11.50;99.90
2825;DHT22;1420;51.324;12.344;2023-03-26T08:53:49;11.80;99.90
2825;DHT22;1420;51.324;12.344;2023-03-26T08:56:17;11.70;99.90
2825;DHT22;1420;51.324;12.344;2023-03-26T09:07:47;12.50;99.90
2825;DHT22;1420;51.324;12.344;2023-03-26T09:10:24;12.70;99.90
2825;DHT22;1420;51.324;12.344;2023-03-26T09:13:59;12.70;99.90
2825;DHT22;1420;51.324;12.344;2023-03-26T09:24:06;13.60;99.90
2825;DHT22;1420;51.324;12.344;2023-03-26T09:26:28;13.70;99.90
2825;DHT22;1420;51.324;12.344;2023-03-26T09:29:01;13.30;99.90
2825;DHT22;1420;51.324;12.344;2023-03-26T09:31:44;13.30;99.90
2825;DHT22;1420;51.324;12.344;2023-03-26T09:34:19;13.80;99.90
2825;DHT22;1420;51.324;12.344;2023-03-26T09:36:51;13.30;99.90
2825;DHT22;1420;51.324;12.344;2023-03-26T09:40:20;13.20;99.90
2825;DHT22;1420;51.324;12.344;2023-03-26T09:42:04;13.10;99.90
2825;DHT22;1420;51.324;12.344;2023-03-26T09:44:38;12.80;99.90
2825;DHT22;1420;51.324;12.344;2023-03-26T09:47:30;12.70;99.90
2825;DHT22;1420;51.324;12.344;2023-03-26T09:50:08;12.90;99.90
2825;DHT22;1420;51.324;12.344;2023-03-26T09:52:40;13.30;99.90
2825;DHT22;1420;51.324;12.344;2023-03-26T09:55:21;13.20;99.90
2825;DHT22;1420;51.324;12.344;2023-03-26T10:00:31;12.90;99.90
2825;DHT22;1420;51.324;12.344;2023-03-26T10:03:34;12.90;99.90
2825;DHT22;1420;51.324;12.344;2023-03-26T10:05:56;12.70;99.90
2825;DHT22;1420;51.324;12.344;2023-03-26T10:08:29;13.10;99.90
2825;DHT22;1420;51.324;12.344;2023-03-26T10:13:52;13.80;99.90
2825;DHT22;1420;51.324;12.344;2023-03-26T10:16:30;14.00;99.90
2825;DHT22;1420;51.324;12.344;2023-03-26T10:19:11;14.20;99.90
2825;DHT22;1420;51.324;12.344;2023-03-26T10:21:54;14.80;99.90
2825;DHT22;1420;51.324;12.344;2023-03-26T10:24:27;14.60;99.90
2825;DHT22;1420;51.324;12.344;2023-03-26T10:32:24;14.30;99.90
2825;DHT22;1420;51.324;12.344;2023-03-26T10:35:14;14.10;99.90
2825;DHT22;1420;51.324;12.344;2023-03-26T10:40:29;13.80;99.90
2825;DHT22;1420;51.324;12.344;2023-03-26T10:44:06;13.80;99.90
2825;DHT22;1420;51.324;12.344;2023-03-26T10:46:02;13.60;99.90
2825;DHT22;1420;51.324;12.344;2023-03-26T10:48:39;13.60;99.90
2825;DHT22;1420;51.324;12.344;2023-03-26T10:51:13;13.70;99.90
2825;DHT22;1420;51.324;12.344;2023-03-26T10:53:42;13.80;99.90
2825;DHT22;1420;51.324;12.344;2023-03-26T10:56:11;14.10;99.90
2825;DHT22;1420;51.324;12.344;2023-03-26T10:58:34;14.10;99.90
2825;DHT22;1420;51.324;12.344;2023-03-26T11:01:03;14.60;99.90
2825;DHT22;1420;51.324;12.344;2023-03-26T11:03:42;14.60;99.90
2825;DHT22;1420;51.324;12.344;2023-03-26T11:06:44;14.50;99.90
2825;DHT22;1420;51.324;12.344;2023-03-26T11:09:30;14.50;99.90
2825;DHT22;1420;51.324;12.344;2023-03-26T11:12:32;14.40;99.90
2825;DHT22;1420;51.324;12.344;2023-03-26T11:17:25;14.20;99.90
2825;DHT22;1420;51.324;12.344;2023-03-26T11:19:50;14.20;99.90
2825;DHT22;1420;51.324;12.344;2023-03-26T11:22:21;13.80;99.90
2825;DHT22;1420;51.324;12.344;2023-03-26T11:24:55;13.40;99.90
2825;DHT22;1420;51.324;12.344;2023-03-26T11:27:34;13.60;99.90
2825;DHT22;1420;51.324;12.344;2023-03-26T11:32:50;13.60;99.90
2825;DHT22;1420;51.324;12.344;2023-03-26T11:35:18;13.60;99.90
2825;DHT22;1420;51.324;12.344;2023-03-26T11:37:45;13.60;99.90
2825;DHT22;1420;51.324;12.344;2023-03-26T11:40:17;13.60;99.90
2825;DHT22;1420;51.324;12.344;2023-03-26T11:42:42;13.60;99.90
2825;DHT22;1420;51.324;12.344;2023-03-26T11:45:14;13.40;99.90
2825;DHT22;1420;51.324;12.344;2023-03-26T11:47:46;13.50;99.90
2825;DHT22;1420;51.324;12.344;2023-03-26T11:50:16;13.30;99.90
2825;DHT22;1420;51.324;12.344;2023-03-26T11:52:43;12.90;99.90
2825;DHT22;1420;51.324;12.344;2023-03-26T11:55:10;12.90;99.90
2825;DHT22;1420;51.324;12.344;2023-03-26T11:57:38;13.00;99.90
2825;DHT22;1420;51.324;12.344;2023-03-26T12:00:09;13.00;99.90
2825;DHT22;1420;51.324;12.344;2023-03-26T12:02:37;13.00;99.90
2825;DHT22;1420;51.324;12.344;2023-03-26T12:05:20;13.10;99.90
2825;DHT22;1420;51.324;12.344;2023-03-26T12:07:53;13.20;99.90
2825;DHT22;1420;51.324;12.344;2023-03-26T12:12:58;13.10;99.90
2825;DHT22;1420;51.324;12.344;2023-03-26T12:15:25;13.40;99.90
2825;DHT22;1420;51.324;12.344;2023-03-26T12:17:53;13.60;99.90
2825;DHT22;1420;51.324;12.344;2023-03-26T12:23:02;13.20;99.90
2825;DHT22;1420;51.324;12.344;2023-03-26T12:25:29;13.20;99.90
2825;DHT22;1420;51.324;12.344;2023-03-26T12:28:30;13.00;99.80
2825;DHT22;1420;51.324;12.344;2023-03-26T12:30:39;12.70;99.90
2825;DHT22;1420;51.324;12.344;2023-03-26T12:33:29;11.90;99.90
2825;DHT22;1420;51.324;12.344;2023-03-26T12:35:57;11.80;99.90
2825;DHT22;1420;51.324;12.344;2023-03-26T12:38:31;10.70;99.90
2825;DHT22;1420;51.324;12.344;2023-03-26T12:41:08;10.60;99.90
2825;DHT22;1420;51.324;12.344;2023-03-26T12:43:45;9.70;99.90
2825;DHT22;1420;51.324;12.344;2023-03-26T12:46:22;9.30;99.90
2825;DHT22;1420;51.324;12.344;2023-03-26T12:48:48;9.20;99.90
2825;DHT22;1420;51.324;12.344;2023-03-26T12:51:50;9.30;99.90
2825;DHT22;1420;51.324;12.344;2023-03-26T12:54:05;9.40;99.90
2825;DHT22;1420;51.324;12.344;2023-03-26T12:56:34;9.40;99.90
2825;DHT22;1420;51.324;12.344;2023-03-26T12:59:05;9.60;99.90
2825;DHT22;1420;51.324;12.344;2023-03-26T13:04:23;10.20;99.90
2825;DHT22;1420;51.324;12.344;2023-03-26T13:06:49;10.50;99.90
2825;DHT22;1420;51.324;12.344;2023-03-26T13:10:25;10.40;99.90
2825;DHT22;1420;51.324;12.344;2023-03-26T13:15:07;10.60;99.90
2825;DHT22;1420;51.324;12.344;2023-03-26T13:17:50;10.80;99.90
2825;DHT22;1420;51.324;12.344;2023-03-26T13:23:15;11.00;99.90
2825;DHT22;1420;51.324;12.344;2023-03-26T13:25:42;10.90;99.90
2825;DHT22;1420;51.324;12.344;2023-03-26T13:28:10;10.70;99.90
2825;DHT22;1420;51.324;12.344;2023-03-26T13:30:40;10.80;99.90
2825;DHT22;1420;51.324;12.344;2023-03-26T13:33:22;10.80;99.90
2825;DHT22;1420;51.324;12.344;2023-03-26T13:35:53;10.60;99.90
2825;DHT22;1420;51.324;12.344;2023-03-26T13:38:33;10.60;99.90
2825;DHT22;1420;51.324;12.344;2023-03-26T13:41:17;10.50;99.90
2825;DHT22;1420;51.324;12.344;2023-03-26T13:46:18;10.40;99.90
2825;DHT22;1420;51.324;12.344;2023-03-26T13:48:59;10.30;99.90
2825;DHT22;1420;51.324;12.344;2023-03-26T13:54:12;10.10;99.90
2825;DHT22;1420;51.324;12.344;2023-03-26T13:56:39;10.10;99.90
2825;DHT22;1420;51.324;12.344;2023-03-26T13:59:07;10.10;99.90
2825;DHT22;1420;51.324;12.344;2023-03-26T14:01:35;10.10;99.90
2825;DHT22;1420;51.324;12.344;2023-03-26T14:04:07;10.00;99.90
2825;DHT22;1420;51.324;12.344;2023-03-26T14:06:46;10.00;99.90
2825;DHT22;1420;51.324;12.344;2023-03-26T14:09:16;10.00;99.90
2825;DHT22;1420;51.324;12.344;2023-03-26T14:13:01;9.80;99.90
2825;DHT22;1420;51.324;12.344;2023-03-26T14:14:49;9.80;99.90
2825;DHT22;1420;51.324;12.344;2023-03-26T14:17:36;9.60;99.90
2825;DHT22;1420;51.324;12.344;2023-03-26T14:20:19;9.70;99.90
2825;DHT22;1420;51.324;12.344;2023-03-26T14:22:52;9.80;99.90
2825;DHT22;1420;51.324;12.344;2023-03-26T14:25:30;9.60;99.90
2825;DHT22;1420;51.324;12.344;2023-03-26T14:28:00;9.40;99.90
2825;DHT22;1420;51.324;12.344;2023-03-26T14:30:38;9.30;99.90
2825;DHT22;1420;51.324;12.344;2023-03-26T14:35:41;9.40;99.90
2825;DHT22;1420;51.324;12.344;2023-03-26T14:38:32;9.40;99.90
2825;DHT22;1420;51.324;12.344;2023-03-26T14:40:57;9.40;99.90
2825;DHT22;1420;51.324;12.344;2023-03-26T14:46:33;9.30;99.90
2825;DHT22;1420;51.324;12.344;2023-03-26T14:49:10;9.40;99.90
2825;DHT22;1420;51.324;12.344;2023-03-26T14:51:42;9.30;99.90
2825;DHT22;1420;51.324;12.344;2023-03-26T14:54:08;9.30;99.90
2825;DHT22;1420;51.324;12.344;2023-03-26T15:00:01;9.20;99.90
2825;DHT22;1420;51.324;12.344;2023-03-26T15:05:18;9.20;99.90
2825;DHT22;1420;51.324;12.344;2023-03-26T15:07:46;9.10;99.90
2825;DHT22;1420;51.324;12.344;2023-03-26T15:11:00;9.20;99.90
2825;DHT22;1420;51.324;12.344;2023-03-26T15:13:28;9.00;99.90
2825;DHT22;1420;51.324;12.344;2023-03-26T15:19:00;9.10;99.90
2825;DHT22;1420;51.324;12.344;2023-03-26T15:22:06;9.00;99.90
2825;DHT22;1420;51.324;12.344;2023-03-26T15:24:43;9.00;99.90
2825;DHT22;1420;51.324;12.344;2023-03-26T15:32:27;9.00;99.90
2825;DHT22;1420;51.324;12.344;2023-03-26T15:37:54;8.90;99.90
2825;DHT22;1420;51.324;12.344;2023-03-26T15:40:22;8.90;99.90
2825;DHT22;1420;51.324;12.344;2023-03-26T15:42:52;9.00;99.90
2825;DHT22;1420;51.324;12.344;2023-03-26T15:45:20;8.90;99.90
2825;DHT22;1420;51.324;12.344;2023-03-26T15:48:04;8.90;99.90
2825;DHT22;1420;51.324;12.344;2023-03-26T15:50:36;8.70;99.90
2825;DHT22;1420;51.324;12.344;2023-03-26T15:53:11;8.70;99.90
2825;DHT22;1420;51.324;12.344;2023-03-26T15:55:33;8.70;99.90
2825;DHT22;1420;51.324;12.344;2023-03-26T15:58:17;8.70;99.90
2825;DHT22;1420;51.324;12.344;2023-03-26T16:00:57;8.70;99.90
2825;DHT22;1420;51.324;12.344;2023-03-26T16:03:28;8.70;99.90
2825;DHT22;1420;51.324;12.344;2023-03-26T16:06:33;8.70;99.90
2825;DHT22;1420;51.324;12.344;2023-03-26T16:09:06;8.70;99.90
2825;DHT22;1420;51.324;12.344;2023-03-26T16:11:57;8.70;99.90
2825;DHT22;1420;51.324;12.344;2023-03-26T16:16:57;8.70;99.90
2825;DHT22;1420;51.324;12.344;2023-03-26T16:19:57;8.60;99.90
2825;DHT22;1420;51.324;12.344;2023-03-26T16:22:10;8.60;99.90
2825;DHT22;1420;51.324;12.344;2023-03-26T16:24:35;8.60;99.90
2825;DHT22;1420;51.324;12.344;2023-03-26T16:27:24;8.50;99.90
2825;DHT22;1420;51.324;12.344;2023-03-26T16:29:35;8.50;99.90
2825;DHT22;1420;51.324;12.344;2023-03-26T16:32:16;8.40;99.90
2825;DHT22;1420;51.324;12.344;2023-03-26T16:34:53;8.40;99.90
2825;DHT22;1420;51.324;12.344;2023-03-26T16:37:35;8.50;99.90
2825;DHT22;1420;51.324;12.344;2023-03-26T16:40:25;8.40;99.90
2825;DHT22;1420;51.324;12.344;2023-03-26T16:43:16;8.50;99.90
2825;DHT22;1420;51.324;12.344;2023-03-26T16:45:45;8.40;99.90
2825;DHT22;1420;51.324;12.344;2023-03-26T16:48:24;8.30;99.90
2825;DHT22;1420;51.324;12.344;2023-03-26T16:50:55;8.30;99.90
2825;DHT22;1420;51.324;12.344;2023-03-26T16:53:26;8.20;99.90
2825;DHT22;1420;51.324;12.344;2023-03-26T16:55:53;8.20;99.90
2825;DHT22;1420;51.324;12.344;2023-03-26T16:58:46;8.20;99.90
2825;DHT22;1420;51.324;12.344;2023-03-26T17:01:20;8.20;99.90
2825;DHT22;1420;51.324;12.344;2023-03-26T17:03:45;8.10;99.90
2825;DHT22;1420;51.324;12.344;2023-03-26T17:06:18;8.20;99.90
2825;DHT22;1420;51.324;12.344;2023-03-26T17:08:56;8.20;99.90
2825;DHT22;1420;51.324;12.344;2023-03-26T17:11:36;8.30;99.90
2825;DHT22;1420;51.324;12.344;2023-03-26T17:16:48;8.10;99.90
2825;DHT22;1420;51.324;12.344;2023-03-26T17:19:19;8.10;99.90
2825;DHT22;1420;51.324;12.344;2023-03-26T17:25:31;8.00;99.90
2825;DHT22;1420;51.324;12.344;2023-03-26T17:29:50;8.10;99.90
2825;DHT22;1420;51.324;12.344;2023-03-26T17:32:15;8.10;99.90
2825;DHT22;1420;51.324;12.344;2023-03-26T17:34:58;8.00;99.90
2825;DHT22;1420;51.324;12.344;2023-03-26T17:37:30;8.00;99.90
2825;DHT22;1420;51.324;12.344;2023-03-26T17:40:52;8.00;99.90
2825;DHT22;1420;51.324;12.344;2023-03-26T17:43:05;8.10;99.90
2825;DHT22;1420;51.324;12.344;2023-03-26T17:45:31;8.00;99.90
2825;DHT22;1420;51.324;12.344;2023-03-26T17:48:00;7.90;99.90
2825;DHT22;1420;51.324;12.344;2023-03-26T17:50:31;7.90;99.90
2825;DHT22;1420;51.324;12.344;2023-03-26T17:53:09;8.00;99.90
2825;DHT22;1420;51.324;12.344;2023-03-26T17:55:34;7.90;99.90
2825;DHT22;1420;51.324;12.344;2023-03-26T17:58:02;7.90;99.90
2825;DHT22;1420;51.324;12.344;2023-03-26T18:00:39;8.00;99.90
2825;DHT22;1420;51.324;12.344;2023-03-26T18:03:17;7.90;99.90
2825;DHT22;1420;51.324;12.344;2023-03-26T18:05:43;8.00;99.90
2825;DHT22;1420;51.324;12.344;2023-03-26T18:11:02;7.90;99.90